Time;durP1;ratioP1;P1;durP2;ratioP2;P2;SDS_P1;SDS_P2;PMS_P1;PMS_P2;Temp;Humidity;BMP_temperature;BMP_pressure;BME280_temperature;BME280_humidity;BME280_pressure;Samples;Min_cycle;Max_cycle;Signal;HPM_P1;HPM_P2
2023/04/26 00:02:19;;;;;;;11.98;10.15;;;;;;;;;;5084014;28;20202;-68
2023/04/26 00:04:46;;;;;;;12.07;9.57;;;;;;;;;;5084200;28;20227;-68
2023/04/26 00:07:14;;;;;;;10.80;9.55;;;;;;;;;;5084389;28;20416;-68
2023/04/26 00:09:43;;;;;;;13.18;9.95;;;;;;;;;;5083802;28;20558;-68
2023/04/26 00:12:10;;;;;;;13.23;10.30;;;;;;;;;;5084103;28;20201;-68
2023/04/26 00:14:36;;;;;;;11.07;9.93;;;;;;;;;;5083921;28;20197;-68
2023/04/26 00:17:03;;;;;;;10.77;9.57;;;;;;;;;;5083916;28;20409;-68
2023/04/26 00:19:29;;;;;;;13.70;9.27;;;;;;;;;;5083939;28;20215;-67
2023/04/26 00:21:55;;;;;;;14.10;9.75;;;;;;;;;;5083922;28;20258;-67
2023/04/26 00:24:23;;;;;;;13.05;9.82;;;;;;;;;;5083718;28;20220;-67
2023/04/26 00:26:49;;;;;;;11.52;10.43;;;;;;;;;;5083522;28;20208;-67
2023/04/26 00:29:16;;;;;;;12.77;10.43;;;;;;;;;;5083843;28;20197;-67
2023/04/26 00:31:42;;;;;;;14.38;10.60;;;;;;;;;;5083673;28;20197;-67
2023/04/26 00:34:08;;;;;;;12.02;10.40;;;;;;;;;;5083516;28;20192;-67
2023/04/26 00:36:34;;;;;;;11.73;10.00;;;;;;;;;;5083552;28;20211;-67
2023/04/26 00:39:01;;;;;;;12.70;10.10;;;;;;;;;;5083157;28;20202;-67
2023/04/26 00:41:29;;;;;;;13.02;9.98;;;;;;;;;;5083637;28;20499;-67
2023/04/26 00:43:55;;;;;;;12.25;9.32;;;;;;;;;;5083420;28;20364;-67
2023/04/26 00:46:22;;;;;;;13.70;9.57;;;;;;;;;;5083536;28;20202;-67
2023/04/26 00:48:48;;;;;;;15.77;10.35;;;;;;;;;;5082938;28;20225;-67
2023/04/26 00:51:15;;;;;;;12.52;9.63;;;;;;;;;;5083299;28;20196;-67
2023/04/26 00:53:42;;;;;;;12.30;9.80;;;;;;;;;;5083107;28;20230;-67
2023/04/26 00:56:09;;;;;;;12.07;9.55;;;;;;;;;;5083325;28;20267;-68
2023/04/26 00:58:38;;;;;;;11.40;10.02;;;;;;;;;;5083132;28;20200;-68
2023/04/26 01:01:04;;;;;;;12.75;9.13;;;;;;;;;;5083032;28;20196;-68
2023/04/26 01:03:30;;;;;;;10.07;9.02;;;;;;;;;;5083135;28;20527;-68
2023/04/26 01:05:57;;;;;;;10.93;8.82;;;;;;;;;;5082764;28;20208;-68
2023/04/26 01:08:23;;;;;;;12.43;8.65;;;;;;;;;;5082856;28;20201;-68
2023/04/26 01:10:49;;;;;;;11.98;8.43;;;;;;;;;;5083085;28;20208;-68
2023/04/26 01:13:16;;;;;;;10.55;8.07;;;;;;;;;;5082899;28;20204;-68
2023/04/26 01:15:45;;;;;;;10.27;7.40;;;;;;;;;;5082411;28;20203;-67
2023/04/26 01:18:11;;;;;;;10.88;8.98;;;;;;;;;;5082867;28;20392;-67
2023/04/26 01:20:37;;;;;;;9.98;8.13;;;;;;;;;;5083098;28;20398;-67
2023/04/26 01:23:06;;;;;;;8.60;6.75;;;;;;;;;;5082721;28;20204;-67
2023/04/26 01:25:33;;;;;;;13.65;7.97;;;;;;;;;;5082622;28;20220;-67
2023/04/26 01:27:59;;;;;;;8.88;7.05;;;;;;;;;;5082162;28;20220;-68
2023/04/26 01:30:26;;;;;;;9.75;7.20;;;;;;;;;;5082312;28;20243;-68
2023/04/26 01:32:52;;;;;;;8.15;6.88;;;;;;;;;;5082534;28;20207;-69
2023/04/26 01:35:18;;;;;;;11.73;7.43;;;;;;;;;;5082422;28;20256;-69
2023/04/26 01:37:44;;;;;;;7.57;6.03;;;;;;;;;;5082220;28;20219;-69
2023/04/26 01:40:13;;;;;;;9.73;6.03;;;;;;;;;;5082415;28;20227;-69
2023/04/26 01:42:39;;;;;;;7.03;6.25;;;;;;;;;;5082198;28;20196;-69
2023/04/26 01:45:06;;;;;;;8.07;6.53;;;;;;;;;;5082059;28;20224;-68
2023/04/26 01:47:32;;;;;;;8.05;6.35;;;;;;;;;;5082279;28;20196;-68
2023/04/26 01:49:58;;;;;;;7.45;6.22;;;;;;;;;;5082134;28;20200;-68
2023/04/26 01:52:25;;;;;;;9.43;6.75;;;;;;;;;;5082251;28;20196;-68
2023/04/26 01:54:51;;;;;;;7.22;6.55;;;;;;;;;;5082100;28;20196;-68
2023/04/26 01:57:18;;;;;;;6.35;5.75;;;;;;;;;;5081934;28;20207;-68
2023/04/26 01:59:45;;;;;;;11.32;5.97;;;;;;;;;;5081937;28;20253;-68
2023/04/26 02:02:11;;;;;;;8.38;5.72;;;;;;;;;;5081521;28;20200;-68
2023/04/26 02:04:37;;;;;;;7.57;6.03;;;;;;;;;;5082024;28;20443;-68
2023/04/26 02:07:03;;;;;;;7.70;5.72;;;;;;;;;;5081991;28;20509;-68
2023/04/26 02:09:30;;;;;;;8.00;5.45;;;;;;;;;;5082289;28;20487;-68
2023/04/26 02:11:56;;;;;;;7.03;5.30;;;;;;;;;;5081750;28;20200;-68
2023/04/26 02:14:23;;;;;;;8.98;6.05;;;;;;;;;;5081749;28;20497;-68
2023/04/26 02:16:50;;;;;;;9.07;6.00;;;;;;;;;;5081849;28;20511;-68
2023/04/26 02:19:16;;;;;;;8.45;5.35;;;;;;;;;;5081881;28;20396;-68
2023/04/26 02:21:53;;;;;;;6.75;5.15;;;;;;;;;;5081947;28;20200;-68
2023/04/26 02:24:20;;;;;;;6.78;5.20;;;;;;;;;;5074624;28;20220;-68
2023/04/26 02:26:47;;;;;;;6.97;5.30;;;;;;;;;;5081835;28;20200;-68
2023/04/26 02:29:13;;;;;;;6.65;4.40;;;;;;;;;;5081775;28;20220;-68
2023/04/26 02:31:41;;;;;;;9.93;5.10;;;;;;;;;;5081778;28;20237;-68
2023/04/26 02:34:07;;;;;;;7.25;4.88;;;;;;;;;;5081751;28;20246;-68
2023/04/26 02:36:33;;;;;;;9.13;4.63;;;;;;;;;;5081752;28;20241;-68
2023/04/26 02:39:00;;;;;;;10.82;4.85;;;;;;;;;;5081387;28;20220;-67
2023/04/26 02:41:26;;;;;;;6.93;4.72;;;;;;;;;;5081873;28;20200;-68
2023/04/26 02:43:52;;;;;;;6.90;5.00;;;;;;;;;;5081472;28;20200;-68
2023/04/26 02:46:18;;;;;;;10.90;5.00;;;;;;;;;;5081672;28;20254;-68
2023/04/26 02:48:46;;;;;;;5.05;4.60;;;;;;;;;;5081522;28;20200;-68
2023/04/26 02:51:12;;;;;;;5.70;5.07;;;;;;;;;;5081510;28;20203;-68
2023/04/26 02:53:39;;;;;;;5.40;5.00;;;;;;;;;;5081437;28;20246;-68
2023/04/26 02:56:05;;;;;;;6.38;5.35;;;;;;;;;;5081246;28;20208;-68
2023/04/26 02:58:32;;;;;;;6.43;4.90;;;;;;;;;;5081554;28;20219;-68
2023/04/26 03:00:58;;;;;;;10.07;5.30;;;;;;;;;;5081494;28;20201;-68
2023/04/26 03:03:24;;;;;;;6.07;5.35;;;;;;;;;;5081356;28;20215;-68
2023/04/26 03:05:52;;;;;;;5.75;5.20;;;;;;;;;;5081335;28;20216;-68
2023/04/26 03:08:18;;;;;;;6.07;5.15;;;;;;;;;;5081104;28;20381;-68
2023/04/26 03:10:45;;;;;;;6.47;5.13;;;;;;;;;;5081682;28;20373;-68
2023/04/26 03:13:11;;;;;;;6.20;5.47;;;;;;;;;;5082390;28;20215;-68
2023/04/26 03:15:38;;;;;;;7.28;5.75;;;;;;;;;;5085301;28;20192;-68
2023/04/26 03:18:04;;;;;;;10.02;6.55;;;;;;;;;;5084904;28;20200;-68
2023/04/26 03:20:30;;;;;;;9.68;5.80;;;;;;;;;;5085144;28;20234;-68
2023/04/26 03:22:58;;;;;;;9.15;6.40;;;;;;;;;;5084865;28;20204;-68
2023/04/26 03:25:24;;;;;;;8.25;5.22;;;;;;;;;;5084971;28;20258;-68
2023/04/26 03:27:51;;;;;;;11.25;6.30;;;;;;;;;;5084647;28;20555;-68
2023/04/26 03:30:17;;;;;;;8.40;6.28;;;;;;;;;;5084996;28;20504;-68
2023/04/26 03:32:43;;;;;;;8.93;6.03;;;;;;;;;;5084880;28;20368;-68
2023/04/26 03:35:10;;;;;;;10.18;5.88;;;;;;;;;;5084742;28;20200;-68
2023/04/26 03:37:38;;;;;;;8.68;6.22;;;;;;;;;;5084507;28;20208;-68
2023/04/26 03:40:07;;;;;;;7.47;6.13;;;;;;;;;;5084660;28;20200;-68
2023/04/26 03:42:33;;;;;;;9.70;6.53;;;;;;;;;;5084545;28;20222;-68
2023/04/26 03:44:59;;;;;;;8.70;6.35;;;;;;;;;;5084388;28;20224;-68
2023/04/26 03:47:26;;;;;;;7.03;5.80;;;;;;;;;;5084326;28;20238;-68
2023/04/26 03:49:52;;;;;;;12.50;5.70;;;;;;;;;;5084207;28;20508;-68
2023/04/26 03:52:18;;;;;;;8.32;5.28;;;;;;;;;;5084555;28;20369;-68
2023/04/26 03:54:45;;;;;;;7.28;5.65;;;;;;;;;;5084600;28;20220;-68
2023/04/26 03:57:12;;;;;;;7.25;5.43;;;;;;;;;;5084231;28;20218;-68
2023/04/26 03:59:39;;;;;;;7.05;5.88;;;;;;;;;;5084500;28;20495;-68
2023/04/26 04:02:05;;;;;;;6.70;5.88;;;;;;;;;;5084414;28;20197;-67
2023/04/26 04:04:31;;;;;;;7.43;6.80;;;;;;;;;;5084271;28;20240;-67
2023/04/26 04:06:58;;;;;;;9.50;6.30;;;;;;;;;;5084363;28;20246;-68
2023/04/26 04:09:24;;;;;;;7.18;6.15;;;;;;;;;;5084118;28;20204;-68
2023/04/26 04:11:51;;;;;;;6.75;5.28;;;;;;;;;;5084162;28;20500;-67
2023/04/26 04:14:19;;;;;;;9.68;6.40;;;;;;;;;;5075799;28;20215;-67
2023/04/26 04:16:45;;;;;;;7.28;5.78;;;;;;;;;;5084283;28;20224;-68
2023/04/26 04:19:12;;;;;;;9.95;5.50;;;;;;;;;;5084022;28;20272;-68
2023/04/26 04:21:39;;;;;;;6.63;6.03;;;;;;;;;;5084353;28;20208;-68
2023/04/26 04:24:05;;;;;;;7.93;6.25;;;;;;;;;;5083597;28;20206;-68
2023/04/26 04:26:32;;;;;;;8.27;6.05;;;;;;;;;;5084184;28;20261;-68
2023/04/26 04:29:07;;;;;;;8.63;6.30;;;;;;;;;;5083809;28;20217;-68
2023/04/26 04:31:34;;;;;;;7.95;6.07;;;;;;;;;;5083915;28;20218;-68
2023/04/26 04:34:01;;;;;;;9.77;5.90;;;;;;;;;;5084237;28;20228;-68
2023/04/26 04:36:27;;;;;;;6.97;6.28;;;;;;;;;;5084130;28;20235;-68
2023/04/26 04:38:53;;;;;;;7.82;6.03;;;;;;;;;;5083732;28;20212;-68
2023/04/26 04:41:21;;;;;;;8.25;6.53;;;;;;;;;;5083898;28;20520;-68
2023/04/26 04:43:47;;;;;;;8.82;6.65;;;;;;;;;;5083525;28;20208;-68
2023/04/26 04:46:13;;;;;;;7.90;7.10;;;;;;;;;;5083402;28;20454;-68
2023/04/26 04:48:42;;;;;;;9.70;6.38;;;;;;;;;;5083597;28;20200;-68
2023/04/26 04:51:08;;;;;;;10.00;7.30;;;;;;;;;;5083627;28;20267;-68
2023/04/26 04:53:34;;;;;;;9.15;7.60;;;;;;;;;;5083731;28;20508;-68
2023/04/26 04:56:01;;;;;;;9.65;7.15;;;;;;;;;;5083931;28;20220;-68
2023/04/26 04:58:27;;;;;;;9.23;7.00;;;;;;;;;;5083228;28;20197;-68
2023/04/26 05:00:54;;;;;;;8.77;7.05;;;;;;;;;;5083428;28;20200;-68
2023/04/26 05:03:21;;;;;;;8.18;7.07;;;;;;;;;;5075352;28;20346;-67
2023/04/26 05:05:49;;;;;;;13.88;8.18;;;;;;;;;;5083251;28;20424;-68
2023/04/26 05:08:15;;;;;;;10.63;7.88;;;;;;;;;;5082970;28;20423;-68
2023/04/26 05:10:41;;;;;;;8.60;7.60;;;;;;;;;;5083067;28;20196;-68
2023/04/26 05:13:08;;;;;;;12.00;7.63;;;;;;;;;;5082670;28;20213;-68
2023/04/26 05:15:34;;;;;;;10.25;8.00;;;;;;;;;;5083262;28;20193;-68
2023/04/26 05:18:00;;;;;;;10.10;8.18;;;;;;;;;;5083038;28;20518;-68
2023/04/26 05:20:27;;;;;;;12.50;8.55;;;;;;;;;;5083086;28;20522;-68
2023/04/26 05:22:54;;;;;;;14.30;9.63;;;;;;;;;;5082944;28;20204;-68
2023/04/26 05:25:21;;;;;;;18.10;10.98;;;;;;;;;;5082794;28;20279;-68
2023/04/26 05:27:47;;;;;;;18.67;12.57;;;;;;;;;;5082599;28;20244;-68
2023/04/26 05:30:14;;;;;;;20.25;11.98;;;;;;;;;;5082521;28;20208;-68
2023/04/26 05:32:40;;;;;;;16.65;11.25;;;;;;;;;;5082923;28;20197;-68
2023/04/26 05:35:07;;;;;;;15.93;11.90;;;;;;;;;;5082287;28;20503;-68
2023/04/26 05:37:34;;;;;;;14.65;11.55;;;;;;;;;;5082192;28;20227;-68
2023/04/26 05:40:03;;;;;;;18.33;12.52;;;;;;;;;;5082611;28;20200;-68
2023/04/26 05:42:29;;;;;;;16.88;11.75;;;;;;;;;;5082562;28;20267;-68
2023/04/26 05:44:56;;;;;;;19.45;11.98;;;;;;;;;;5082479;28;20207;-69
2023/04/26 05:47:23;;;;;;;19.98;12.10;;;;;;;;;;5074440;28;20200;-68
2023/04/26 05:49:49;;;;;;;19.15;12.15;;;;;;;;;;5067979;28;20216;-68
2023/04/26 05:52:15;;;;;;;15.90;10.98;;;;;;;;;;5069653;28;20213;-60
2023/04/26 05:54:41;;;;;;;17.40;12.73;;;;;;;;;;5072238;28;20231;-60
2023/04/26 05:57:09;;;;;;;17.73;13.38;;;;;;;;;;5077749;28;20574;-60
2023/04/26 05:59:35;;;;;;;19.60;13.18;;;;;;;;;;5076920;28;20208;-59
2023/04/26 06:02:03;;;;;;;21.10;14.50;;;;;;;;;;5071867;28;20338;-59
2023/04/26 06:04:29;;;;;;;20.02;13.15;;;;;;;;;;5072161;28;20204;-59
2023/04/26 06:06:56;;;;;;;17.40;13.13;;;;;;;;;;5068672;28;20410;-60
2023/04/26 06:09:23;;;;;;;16.02;12.73;;;;;;;;;;5067023;28;20209;-60
2023/04/26 06:11:49;;;;;;;18.42;12.60;;;;;;;;;;5068313;28;20208;-60
2023/04/26 06:14:16;;;;;;;14.95;11.70;;;;;;;;;;5073066;28;20216;-60
2023/04/26 06:16:43;;;;;;;18.73;11.88;;;;;;;;;;5073944;28;20210;-60
2023/04/26 06:19:09;;;;;;;20.98;12.18;;;;;;;;;;5074430;28;20527;-60
2023/04/26 06:21:35;;;;;;;16.50;12.05;;;;;;;;;;5069522;28;20208;-60
2023/04/26 06:24:02;;;;;;;23.95;13.68;;;;;;;;;;5072461;28;20212;-60
2023/04/26 06:26:28;;;;;;;21.70;14.38;;;;;;;;;;5073614;28;20421;-60
2023/04/26 06:28:54;;;;;;;20.05;13.77;;;;;;;;;;5074034;28;20578;-60
2023/04/26 06:31:22;;;;;;;25.23;15.75;;;;;;;;;;5069558;28;20212;-60
2023/04/26 06:33:48;;;;;;;21.05;15.07;;;;;;;;;;5073804;28;20298;-60
2023/04/26 06:36:14;;;;;;;20.58;14.85;;;;;;;;;;5065681;28;20213;-60
2023/04/26 06:38:40;;;;;;;24.33;16.23;;;;;;;;;;5056390;28;20216;-60
2023/04/26 06:41:07;;;;;;;19.63;14.55;;;;;;;;;;5060695;28;20242;-61
2023/04/26 06:43:33;;;;;;;19.65;14.00;;;;;;;;;;5056965;28;20208;-59
2023/04/26 06:46:00;;;;;;;20.75;14.13;;;;;;;;;;5074069;28;20559;-59
2023/04/26 06:48:27;;;;;;;21.60;13.68;;;;;;;;;;5074488;28;20197;-60
2023/04/26 06:50:55;;;;;;;21.27;14.55;;;;;;;;;;5074058;28;20211;-60
2023/04/26 06:53:21;;;;;;;24.80;13.38;;;;;;;;;;5071220;28;20232;-59
2023/04/26 06:55:47;;;;;;;18.02;12.80;;;;;;;;;;5072268;28;20448;-60
2023/04/26 06:58:13;;;;;;;17.65;13.52;;;;;;;;;;5072455;28;20227;-59
2023/04/26 07:00:40;;;;;;;18.98;11.77;;;;;;;;;;5077621;28;20207;-59
2023/04/26 07:03:06;;;;;;;22.40;12.82;;;;;;;;;;5074052;28;20523;-59
2023/04/26 07:05:33;;;;;;;21.67;13.10;;;;;;;;;;5079100;28;20236;-59
2023/04/26 07:08:00;;;;;;;14.95;12.32;;;;;;;;;;5078693;28;20254;-60
2023/04/26 07:10:26;;;;;;;15.35;11.40;;;;;;;;;;5078737;28;20215;-59
2023/04/26 07:12:52;;;;;;;18.20;12.60;;;;;;;;;;5078864;28;20410;-59
2023/04/26 07:15:18;;;;;;;16.73;11.30;;;;;;;;;;5079365;28;20238;-60
2023/04/26 07:17:45;;;;;;;14.15;11.80;;;;;;;;;;5079626;28;20219;-60
2023/04/26 07:20:14;;;;;;;19.35;11.35;;;;;;;;;;5079829;28;20254;-60
2023/04/26 07:22:41;;;;;;;17.92;11.57;;;;;;;;;;5080499;28;20287;-60
2023/04/26 07:25:08;;;;;;;16.95;11.35;;;;;;;;;;5079607;28;20208;-60
2023/04/26 07:27:34;;;;;;;13.90;11.07;;;;;;;;;;5079861;28;20562;-59
2023/04/26 07:30:00;;;;;;;13.95;10.90;;;;;;;;;;5079483;28;20223;-60
2023/04/26 07:32:27;;;;;;;17.23;10.98;;;;;;;;;;5078890;28;20290;-59
2023/04/26 07:34:53;;;;;;;17.60;12.23;;;;;;;;;;5078630;28;20250;-60
2023/04/26 07:37:19;;;;;;;16.90;11.88;;;;;;;;;;5078597;28;20228;-59
2023/04/26 07:39:47;;;;;;;13.85;11.25;;;;;;;;;;5077814;28;20212;-59
2023/04/26 07:42:13;;;;;;;12.77;10.18;;;;;;;;;;5079672;28;20460;-60
2023/04/26 07:44:39;;;;;;;15.68;9.43;;;;;;;;;;5079564;28;20520;-60
2023/04/26 07:47:11;;;;;;;12.13;8.80;;;;;;;;;;5079986;28;20224;-59
2023/04/26 07:49:37;;;;;;;13.57;8.55;;;;;;;;;;5078450;28;20212;-59
2023/04/26 07:52:03;;;;;;;11.25;8.00;;;;;;;;;;5077746;28;20231;-60
2023/04/26 07:54:29;;;;;;;10.88;8.48;;;;;;;;;;5072877;28;20231;-62
2023/04/26 07:56:57;;;;;;;8.57;6.07;;;;;;;;;;5078461;28;20215;-59
2023/04/26 07:59:23;;;;;;;6.38;5.82;;;;;;;;;;5076609;28;20473;-59
2023/04/26 08:01:50;;;;;;;13.48;7.85;;;;;;;;;;5077922;28;20254;-59
2023/04/26 08:04:17;;;;;;;10.50;6.13;;;;;;;;;;5077322;28;20212;-59
2023/04/26 08:06:43;;;;;;;11.27;6.22;;;;;;;;;;5077521;28;20243;-59
2023/04/26 08:09:10;;;;;;;11.13;5.75;;;;;;;;;;5077509;28;20520;-60
2023/04/26 08:11:36;;;;;;;13.10;7.38;;;;;;;;;;5078153;28;20475;-59
2023/04/26 08:14:04;;;;;;;13.80;7.30;;;;;;;;;;5078154;28;20216;-59
2023/04/26 08:16:30;;;;;;;9.27;6.32;;;;;;;;;;5078564;28;20250;-59
2023/04/26 08:19:01;;;;;;;11.32;6.63;;;;;;;;;;5076673;28;20655;-59
2023/04/26 08:21:27;;;;;;;7.10;6.35;;;;;;;;;;5077593;28;20526;-59
2023/04/26 08:23:54;;;;;;;10.82;5.95;;;;;;;;;;5076709;28;20213;-58
2023/04/26 08:26:20;;;;;;;9.85;6.10;;;;;;;;;;5076793;28;20561;-59
2023/04/26 08:28:47;;;;;;;9.65;5.95;;;;;;;;;;5078260;28;20258;-59
2023/04/26 08:31:14;;;;;;;7.68;5.35;;;;;;;;;;5077516;28;20212;-59
2023/04/26 08:33:40;;;;;;;11.85;5.82;;;;;;;;;;5077162;28;20234;-60
2023/04/26 08:36:07;;;;;;;7.95;4.60;;;;;;;;;;5076593;28;20213;-60
2023/04/26 08:38:33;;;;;;;7.35;4.22;;;;;;;;;;5077710;28;20590;-59
2023/04/26 08:41:01;;;;;;;8.10;4.10;;;;;;;;;;5076328;28;20212;-59
2023/04/26 08:43:28;;;;;;;12.25;4.80;;;;;;;;;;5077234;28;20231;-58
2023/04/26 08:45:54;;;;;;;6.95;3.50;;;;;;;;;;5076584;28;20540;-61
2023/04/26 08:48:23;;;;;;;6.45;3.53;;;;;;;;;;5075706;28;20204;-59
2023/04/26 08:50:49;;;;;;;9.10;4.70;;;;;;;;;;5076938;28;20254;-60
2023/04/26 08:53:16;;;;;;;7.22;4.40;;;;;;;;;;5077918;28;20536;-59
2023/04/26 08:55:46;;;;;;;6.10;4.00;;;;;;;;;;5076432;28;20247;-59
2023/04/26 08:58:12;;;;;;;7.57;4.93;;;;;;;;;;5076184;28;20250;-59
2023/04/26 09:00:39;;;;;;;12.32;4.82;;;;;;;;;;5075913;28;20215;-59
2023/04/26 09:03:05;;;;;;;6.20;3.92;;;;;;;;;;5076421;28;20220;-59
2023/04/26 09:05:33;;;;;;;5.88;3.83;;;;;;;;;;5076627;28;20536;-58
2023/04/26 09:08:00;;;;;;;4.40;3.80;;;;;;;;;;5075866;28;20286;-59
2023/04/26 09:10:27;;;;;;;5.63;4.00;;;;;;;;;;5076876;28;20212;-59
2023/04/26 09:12:54;;;;;;;6.38;4.72;;;;;;;;;;5077366;28;20224;-59
2023/04/26 09:15:20;;;;;;;5.05;3.92;;;;;;;;;;5077080;28;20212;-59
2023/04/26 09:17:48;;;;;;;6.05;4.50;;;;;;;;;;5077955;28;20207;-60
2023/04/26 09:20:20;;;;;;;6.43;4.38;;;;;;;;;;5070664;28;20429;-60
2023/04/26 09:22:48;;;;;;;8.80;4.22;;;;;;;;;;5069868;28;20528;-60
2023/04/26 09:25:16;;;;;;;6.07;4.10;;;;;;;;;;5076298;28;20221;-60
2023/04/26 09:27:43;;;;;;;6.55;3.90;;;;;;;;;;5075987;28;20224;-61
2023/04/26 09:30:10;;;;;;;9.80;5.00;;;;;;;;;;5076025;28;20212;-61
2023/04/26 09:32:43;;;;;;;7.55;4.38;;;;;;;;;;5076284;28;20559;-61
2023/04/26 09:35:18;;;;;;;9.38;4.07;;;;;;;;;;5076735;28;20258;-60
2023/04/26 09:37:51;;;;;;;4.60;3.95;;;;;;;;;;5071291;28;20233;-60
2023/04/26 09:40:18;;;;;;;11.90;3.88;;;;;;;;;;5073405;28;20510;-61
2023/04/26 09:42:44;;;;;;;7.00;4.40;;;;;;;;;;5071460;28;20255;-61
2023/04/26 09:45:11;;;;;;;5.75;4.13;;;;;;;;;;5068258;28;20243;-60
2023/04/26 09:47:37;;;;;;;10.90;4.32;;;;;;;;;;5075418;28;20228;-60
2023/04/26 09:50:04;;;;;;;5.15;3.70;;;;;;;;;;5071157;28;20500;-61
2023/04/26 09:52:30;;;;;;;4.57;4.07;;;;;;;;;;5074377;28;20238;-61
2023/04/26 09:54:57;;;;;;;6.72;3.47;;;;;;;;;;5076050;28;20216;-61
2023/04/26 09:57:24;;;;;;;8.95;4.20;;;;;;;;;;5075608;28;20245;-61
2023/04/26 09:59:50;;;;;;;5.25;3.05;;;;;;;;;;5075590;28;20216;-61
2023/04/26 10:02:19;;;;;;;6.57;3.20;;;;;;;;;;5074979;28;20553;-60
2023/04/26 10:04:46;;;;;;;6.38;3.58;;;;;;;;;;5074378;28;20258;-61
2023/04/26 10:07:13;;;;;;;4.78;2.97;;;;;;;;;;5075033;28;20298;-61
2023/04/26 10:09:39;;;;;;;5.30;2.72;;;;;;;;;;5074418;28;20212;-61
2023/04/26 10:12:08;;;;;;;5.25;3.22;;;;;;;;;;5075144;28;20234;-59
2023/04/26 10:14:35;;;;;;;4.15;3.55;;;;;;;;;;5074895;28;20211;-58
2023/04/26 10:17:03;;;;;;;9.75;3.90;;;;;;;;;;5076211;28;20440;-59
2023/04/26 10:19:29;;;;;;;5.78;3.40;;;;;;;;;;5075791;28;20228;-59
2023/04/26 10:21:58;;;;;;;6.78;3.47;;;;;;;;;;5075682;28;20274;-59
2023/04/26 10:24:24;;;;;;;7.32;3.65;;;;;;;;;;5075579;28;20516;-60
2023/04/26 10:26:52;;;;;;;7.13;4.00;;;;;;;;;;5074861;28;20516;-59
2023/04/26 10:29:20;;;;;;;4.93;3.55;;;;;;;;;;5075495;28;20215;-60
2023/04/26 10:32:05;;;;;;;7.18;3.40;;;;;;;;;;5074718;28;20220;-59
2023/04/26 10:34:32;;;;;;;6.30;3.22;;;;;;;;;;5075087;28;20216;-60
2023/04/26 10:37:08;;;;;;;7.05;3.80;;;;;;;;;;5075438;28;20212;-60
2023/04/26 10:39:35;;;;;;;4.47;3.80;;;;;;;;;;5075675;28;20208;-60
2023/04/26 10:42:24;;;;;;;6.90;3.40;;;;;;;;;;5075823;28;20251;-60
2023/04/26 10:44:52;;;;;;;5.97;3.00;;;;;;;;;;5069532;28;20213;-60
2023/04/26 10:47:28;;;;;;;3.50;2.95;;;;;;;;;;5074666;28;20216;-60
2023/04/26 10:50:02;;;;;;;7.38;2.80;;;;;;;;;;5074644;28;20427;-60
2023/04/26 10:52:29;;;;;;;3.90;2.25;;;;;;;;;;5075246;28;20444;-60
2023/04/26 10:54:56;;;;;;;8.07;2.90;;;;;;;;;;5074838;28;20212;-60
2023/04/26 10:57:23;;;;;;;5.22;2.70;;;;;;;;;;5074718;28;20231;-61
2023/04/26 11:00:09;;;;;;;5.75;3.08;;;;;;;;;;5074291;28;20488;-60
2023/04/26 11:02:46;;;;;;;6.97;3.22;;;;;;;;;;5075211;28;20208;-60
2023/04/26 11:05:32;;;;;;;8.13;3.00;;;;;;;;;;5073646;28;20211;-60
2023/04/26 11:08:03;;;;;;;3.47;3.10;;;;;;;;;;5070090;28;20270;-60
2023/04/26 11:10:29;;;;;;;6.15;3.50;;;;;;;;;;5073415;28;20213;-60
2023/04/26 11:13:00;;;;;;;3.55;3.30;;;;;;;;;;5075234;28;20261;-60
2023/04/26 11:15:26;;;;;;;3.88;3.10;;;;;;;;;;5074858;28;20454;-60
2023/04/26 11:17:54;;;;;;;9.98;3.00;;;;;;;;;;5074924;28;20204;-60
2023/04/26 11:20:20;;;;;;;7.35;2.97;;;;;;;;;;5074120;28;20547;-60
2023/04/26 11:22:46;;;;;;;5.55;3.03;;;;;;;;;;5075299;28;20531;-60
2023/04/26 11:25:13;;;;;;;4.78;2.90;;;;;;;;;;5075095;28;20212;-59
2023/04/26 11:27:39;;;;;;;5.43;3.08;;;;;;;;;;5074770;28;20224;-59
2023/04/26 11:30:06;;;;;;;5.50;3.20;;;;;;;;;;5074797;28;20213;-60
2023/04/26 11:32:33;;;;;;;3.40;3.10;;;;;;;;;;5075773;28;20213;-58
2023/04/26 11:35:01;;;;;;;7.50;4.13;;;;;;;;;;5076334;28;20278;-58
2023/04/26 11:37:27;;;;;;;4.35;3.38;;;;;;;;;;5078514;28;20544;-59
2023/04/26 11:39:53;;;;;;;7.28;3.38;;;;;;;;;;5077771;28;20573;-59
2023/04/26 11:42:24;;;;;;;5.05;3.28;;;;;;;;;;5078166;28;20419;-59
2023/04/26 11:44:51;;;;;;;6.00;3.25;;;;;;;;;;5078302;28;20212;-60
2023/04/26 11:47:18;;;;;;;8.80;3.28;;;;;;;;;;5078514;28;20235;-60
2023/04/26 11:49:45;;;;;;;5.63;3.00;;;;;;;;;;5078033;28;20279;-59
2023/04/26 11:52:14;;;;;;;6.10;3.20;;;;;;;;;;5077387;28;20488;-61
2023/04/26 11:54:41;;;;;;;4.55;3.13;;;;;;;;;;5077889;28;20216;-61
2023/04/26 11:57:13;;;;;;;7.68;3.20;;;;;;;;;;5078307;28;20208;-61
2023/04/26 11:59:39;;;;;;;8.10;3.38;;;;;;;;;;5077334;28;20215;-62
2023/04/26 12:02:06;;;;;;;7.63;3.38;;;;;;;;;;5078571;28;20547;-62
2023/04/26 12:04:32;;;;;;;7.78;3.00;;;;;;;;;;5077428;28;20348;-62
2023/04/26 12:06:58;;;;;;;37.13;7.90;;;;;;;;;;5077820;28;20252;-59
2023/04/26 12:09:28;;;;;;;10.20;3.78;;;;;;;;;;5077796;28;20212;-59
2023/04/26 12:11:57;;;;;;;9.57;3.05;;;;;;;;;;5077398;28;20405;-61
2023/04/26 12:14:24;;;;;;;7.13;3.28;;;;;;;;;;5078059;28;20228;-60
2023/04/26 12:16:50;;;;;;;7.13;3.60;;;;;;;;;;5078064;28;20212;-60
2023/04/26 12:19:17;;;;;;;5.05;3.08;;;;;;;;;;5077885;28;20223;-60
2023/04/26 12:21:43;;;;;;;3.97;3.22;;;;;;;;;;5077312;28;20212;-60
2023/04/26 12:24:21;;;;;;;23.35;3.55;;;;;;;;;;5078320;28;20552;-60
2023/04/26 12:26:48;;;;;;;6.30;3.28;;;;;;;;;;5077656;28;20208;-60
2023/04/26 12:29:14;;;;;;;5.43;3.00;;;;;;;;;;5077593;28;20216;-60
2023/04/26 12:31:41;;;;;;;4.28;2.63;;;;;;;;;;5078321;28;20446;-60
2023/04/26 12:34:07;;;;;;;5.43;2.75;;;;;;;;;;5078534;28;20212;-60
2023/04/26 12:36:34;;;;;;;3.85;2.58;;;;;;;;;;5077203;28;20212;-60
2023/04/26 12:39:03;;;;;;;3.70;2.95;;;;;;;;;;5077819;28;20438;-60
2023/04/26 12:41:30;;;;;;;3.75;2.67;;;;;;;;;;5077442;28;20216;-60
2023/04/26 12:43:58;;;;;;;5.22;2.63;;;;;;;;;;5079246;28;20235;-61
2023/04/26 12:46:24;;;;;;;3.92;2.80;;;;;;;;;;5066477;28;20425;-61
2023/04/26 12:48:51;;;;;;;3.58;2.55;;;;;;;;;;5077460;28;20228;-60
2023/04/26 12:51:17;;;;;;;3.65;2.47;;;;;;;;;;5076715;28;20205;-61
2023/04/26 12:53:43;;;;;;;6.28;2.65;;;;;;;;;;5076460;28;20208;-60
2023/04/26 12:56:10;;;;;;;5.28;2.80;;;;;;;;;;5076643;28;20219;-60
2023/04/26 12:58:36;;;;;;;6.28;2.70;;;;;;;;;;5076249;28;20209;-60
2023/04/26 13:01:04;;;;;;;5.97;3.13;;;;;;;;;;5078241;28;20265;-61
2023/04/26 13:03:30;;;;;;;5.13;2.72;;;;;;;;;;5076724;28;20216;-61
2023/04/26 13:05:56;;;;;;;4.13;2.50;;;;;;;;;;5075872;28;20216;-60
2023/04/26 13:08:23;;;;;;;3.85;2.80;;;;;;;;;;5076751;28;20427;-60
2023/04/26 13:10:50;;;;;;;2.47;2.20;;;;;;;;;;5076142;28;20528;-59
2023/04/26 13:13:16;;;;;;;2.72;2.15;;;;;;;;;;5075629;28;20248;-59
2023/04/26 13:15:42;;;;;;;2.20;2.00;;;;;;;;;;5076778;28;20246;-62
2023/04/26 13:18:10;;;;;;;4.00;2.80;;;;;;;;;;5076291;28;20570;-59
2023/04/26 13:20:37;;;;;;;4.38;2.30;;;;;;;;;;5076534;28;20536;-60
2023/04/26 13:23:03;;;;;;;4.88;2.28;;;;;;;;;;5076113;28;20446;-63
2023/04/26 13:25:29;;;;;;;5.55;2.60;;;;;;;;;;5076956;28;20456;-59
2023/04/26 13:27:55;;;;;;;3.55;2.72;;;;;;;;;;5075168;28;20313;-60
2023/04/26 13:30:22;;;;;;;2.45;2.25;;;;;;;;;;5076094;28;20586;-60
2023/04/26 13:32:48;;;;;;;3.63;2.53;;;;;;;;;;5068461;28;20679;-59
2023/04/26 13:35:15;;;;;;;3.40;2.08;;;;;;;;;;5075518;28;20224;-60
2023/04/26 13:37:42;;;;;;;3.72;2.75;;;;;;;;;;5076527;28;20208;-60
2023/04/26 13:40:10;;;;;;;3.80;2.85;;;;;;;;;;5075941;28;20535;-61
2023/04/26 13:42:36;;;;;;;4.50;2.72;;;;;;;;;;5075960;28;20212;-62
2023/04/26 13:45:05;;;;;;;5.30;2.40;;;;;;;;;;5076332;28;20270;-61
2023/04/26 13:47:31;;;;;;;7.07;2.60;;;;;;;;;;5074378;28;20220;-61
2023/04/26 13:49:57;;;;;;;6.30;2.55;;;;;;;;;;5074868;28;20212;-61
2023/04/26 13:52:25;;;;;;;2.95;2.25;;;;;;;;;;5075904;28;20212;-61
2023/04/26 13:54:51;;;;;;;4.55;2.47;;;;;;;;;;5068846;28;20218;-63
2023/04/26 13:57:18;;;;;;;4.32;2.30;;;;;;;;;;5075317;28;20445;-62
2023/04/26 13:59:44;;;;;;;4.82;2.67;;;;;;;;;;5075058;28;20752;-61
2023/04/26 14:02:11;;;;;;;3.28;2.30;;;;;;;;;;5076437;28;20482;-61
2023/04/26 14:04:37;;;;;;;4.53;2.33;;;;;;;;;;5074524;28;20226;-60
2023/04/26 14:07:04;;;;;;;2.55;2.30;;;;;;;;;;5075798;28;20209;-60
2023/04/26 14:09:32;;;;;;;4.20;2.60;;;;;;;;;;5074350;28;20285;-60
2023/04/26 14:11:58;;;;;;;2.55;2.20;;;;;;;;;;5074826;28;20211;-61
2023/04/26 14:14:25;;;;;;;3.33;2.20;;;;;;;;;;5075834;28;20212;-61
2023/04/26 14:16:52;;;;;;;4.43;2.50;;;;;;;;;;5069329;28;20440;-60
2023/04/26 14:19:18;;;;;;;2.42;2.25;;;;;;;;;;5076348;28;20205;-61
2023/04/26 14:21:44;;;;;;;5.63;2.10;;;;;;;;;;5075657;28;20246;-59
2023/04/26 14:24:11;;;;;;;4.57;2.47;;;;;;;;;;5076018;28;20542;-60
2023/04/26 14:26:38;;;;;;;6.43;2.40;;;;;;;;;;5075174;28;20278;-62
2023/04/26 14:29:04;;;;;;;3.63;2.83;;;;;;;;;;5074478;28;20228;-61
2023/04/26 14:31:31;;;;;;;3.67;2.60;;;;;;;;;;5074754;28;20254;-61
2023/04/26 14:33:58;;;;;;;4.53;2.83;;;;;;;;;;5073113;28;20200;-61
2023/04/26 14:36:24;;;;;;;2.63;2.42;;;;;;;;;;5072452;28;20208;-61